sensor_id;sensor_type;location;lat;lon;timestamp;P1;durP1;ratioP1;P2;durP2;ratioP2
48795;SDS011;34607;48.520;-1.330;2023-05-27T00:00:22;29.52;;;8.38;;
48795;SDS011;34607;48.520;-1.330;2023-05-27T00:02:50;27.77;;;8.35;;
48795;SDS011;34607;48.520;-1.330;2023-05-27T00:05:17;27.00;;;8.23;;
48795;SDS011;34607;48.520;-1.330;2023-05-27T00:07:44;27.45;;;7.22;;
48795;SDS011;34607;48.520;-1.330;2023-05-27T00:10:11;32.90;;;9.13;;
48795;SDS011;34607;48.520;-1.330;2023-05-27T00:12:38;28.08;;;8.35;;
48795;SDS011;34607;48.520;-1.330;2023-05-27T00:15:06;29.08;;;8.80;;
48795;SDS011;34607;48.520;-1.330;2023-05-27T00:17:33;24.45;;;8.38;;
48795;SDS011;34607;48.520;-1.330;2023-05-27T00:20:03;27.95;;;7.78;;
48795;SDS011;34607;48.520;-1.330;2023-05-27T00:22:33;31.13;;;9.15;;
48795;SDS011;34607;48.520;-1.330;2023-05-27T00:25:02;28.67;;;8.65;;
48795;SDS011;34607;48.520;-1.330;2023-05-27T00:27:29;29.45;;;9.60;;
48795;SDS011;34607;48.520;-1.330;2023-05-27T00:29:56;25.73;;;8.27;;
48795;SDS011;34607;48.520;-1.330;2023-05-27T00:32:23;23.15;;;8.30;;
48795;SDS011;34607;48.520;-1.330;2023-05-27T00:34:50;23.10;;;8.02;;
48795;SDS011;34607;48.520;-1.330;2023-05-27T00:37:19;23.40;;;8.55;;
48795;SDS011;34607;48.520;-1.330;2023-05-27T00:39:46;25.08;;;8.00;;
48795;SDS011;34607;48.520;-1.330;2023-05-27T00:42:13;23.25;;;7.32;;
48795;SDS011;34607;48.520;-1.330;2023-05-27T00:44:40;26.13;;;7.65;;
48795;SDS011;34607;48.520;-1.330;2023-05-27T00:47:07;25.45;;;8.32;;
48795;SDS011;34607;48.520;-1.330;2023-05-27T00:49:34;23.50;;;8.07;;
48795;SDS011;34607;48.520;-1.330;2023-05-27T00:52:02;28.40;;;8.80;;
48795;SDS011;34607;48.520;-1.330;2023-05-27T00:54:31;23.42;;;8.00;;
48795;SDS011;34607;48.520;-1.330;2023-05-27T00:56:58;31.85;;;10.32;;
48795;SDS011;34607;48.520;-1.330;2023-05-27T00:59:26;27.73;;;8.23;;
48795;SDS011;34607;48.520;-1.330;2023-05-27T01:01:53;26.67;;;8.38;;
48795;SDS011;34607;48.520;-1.330;2023-05-27T01:04:21;21.67;;;8.32;;
48795;SDS011;34607;48.520;-1.330;2023-05-27T01:06:49;25.63;;;7.88;;
48795;SDS011;34607;48.520;-1.330;2023-05-27T01:09:26;25.88;;;8.75;;
48795;SDS011;34607;48.520;-1.330;2023-05-27T01:12:05;23.48;;;7.53;;
48795;SDS011;34607;48.520;-1.330;2023-05-27T01:14:35;26.63;;;8.38;;
48795;SDS011;34607;48.520;-1.330;2023-05-27T01:17:05;25.17;;;7.40;;
48795;SDS011;34607;48.520;-1.330;2023-05-27T01:19:33;22.80;;;8.07;;
48795;SDS011;34607;48.520;-1.330;2023-05-27T01:22:01;22.40;;;8.05;;
48795;SDS011;34607;48.520;-1.330;2023-05-27T01:24:30;18.40;;;7.30;;
48795;SDS011;34607;48.520;-1.330;2023-05-27T01:26:58;25.42;;;8.68;;
48795;SDS011;34607;48.520;-1.330;2023-05-27T01:29:28;27.67;;;7.38;;
48795;SDS011;34607;48.520;-1.330;2023-05-27T01:31:56;23.60;;;7.50;;
48795;SDS011;34607;48.520;-1.330;2023-05-27T01:34:41;22.75;;;7.07;;
48795;SDS011;34607;48.520;-1.330;2023-05-27T01:37:13;25.60;;;8.95;;
48795;SDS011;34607;48.520;-1.330;2023-05-27T01:39:47;28.48;;;8.10;;
48795;SDS011;34607;48.520;-1.330;2023-05-27T01:42:16;19.83;;;7.20;;
48795;SDS011;34607;48.520;-1.330;2023-05-27T01:44:44;31.27;;;8.70;;
48795;SDS011;34607;48.520;-1.330;2023-05-27T01:47:12;24.33;;;8.20;;
48795;SDS011;34607;48.520;-1.330;2023-05-27T01:49:39;24.45;;;8.43;;
48795;SDS011;34607;48.520;-1.330;2023-05-27T01:52:06;22.98;;;8.63;;
48795;SDS011;34607;48.520;-1.330;2023-05-27T01:54:34;22.30;;;7.75;;
48795;SDS011;34607;48.520;-1.330;2023-05-27T01:57:03;24.75;;;8.65;;
48795;SDS011;34607;48.520;-1.330;2023-05-27T01:59:31;29.65;;;8.05;;
48795;SDS011;34607;48.520;-1.330;2023-05-27T02:01:58;23.80;;;7.03;;
48795;SDS011;34607;48.520;-1.330;2023-05-27T02:04:25;23.33;;;8.25;;
48795;SDS011;34607;48.520;-1.330;2023-05-27T02:06:54;22.20;;;8.30;;
48795;SDS011;34607;48.520;-1.330;2023-05-27T02:09:23;20.35;;;7.45;;
48795;SDS011;34607;48.520;-1.330;2023-05-27T02:11:52;23.23;;;8.18;;
48795;SDS011;34607;48.520;-1.330;2023-05-27T02:14:20;22.25;;;7.22;;
48795;SDS011;34607;48.520;-1.330;2023-05-27T02:16:49;19.83;;;7.63;;
48795;SDS011;34607;48.520;-1.330;2023-05-27T02:19:16;26.33;;;8.75;;
48795;SDS011;34607;48.520;-1.330;2023-05-27T02:21:45;26.80;;;8.88;;
48795;SDS011;34607;48.520;-1.330;2023-05-27T02:24:13;23.60;;;8.85;;
48795;SDS011;34607;48.520;-1.330;2023-05-27T02:26:40;23.70;;;7.65;;
48795;SDS011;34607;48.520;-1.330;2023-05-27T02:29:07;25.35;;;7.20;;
48795;SDS011;34607;48.520;-1.330;2023-05-27T02:31:35;22.55;;;8.23;;
48795;SDS011;34607;48.520;-1.330;2023-05-27T02:34:05;25.27;;;8.38;;
48795;SDS011;34607;48.520;-1.330;2023-05-27T02:36:32;22.67;;;8.32;;
48795;SDS011;34607;48.520;-1.330;2023-05-27T02:39:00;23.95;;;7.65;;
48795;SDS011;34607;48.520;-1.330;2023-05-27T02:41:28;20.55;;;6.80;;
48795;SDS011;34607;48.520;-1.330;2023-05-27T02:43:55;22.00;;;6.72;;
48795;SDS011;34607;48.520;-1.330;2023-05-27T02:46:25;23.02;;;7.80;;
48795;SDS011;34607;48.520;-1.330;2023-05-27T02:48:54;23.08;;;7.53;;
48795;SDS011;34607;48.520;-1.330;2023-05-27T02:51:21;23.08;;;8.32;;
48795;SDS011;34607;48.520;-1.330;2023-05-27T02:53:49;25.95;;;7.85;;
48795;SDS011;34607;48.520;-1.330;2023-05-27T02:56:19;29.35;;;8.10;;
48795;SDS011;34607;48.520;-1.330;2023-05-27T02:58:51;22.77;;;6.85;;
48795;SDS011;34607;48.520;-1.330;2023-05-27T03:01:18;16.65;;;6.63;;
48795;SDS011;34607;48.520;-1.330;2023-05-27T03:03:47;20.38;;;7.45;;
48795;SDS011;34607;48.520;-1.330;2023-05-27T03:06:16;20.90;;;7.43;;
48795;SDS011;34607;48.520;-1.330;2023-05-27T03:08:47;24.63;;;8.02;;
48795;SDS011;34607;48.520;-1.330;2023-05-27T03:11:14;20.13;;;7.07;;
48795;SDS011;34607;48.520;-1.330;2023-05-27T03:13:41;30.80;;;8.07;;
48795;SDS011;34607;48.520;-1.330;2023-05-27T03:16:09;22.65;;;8.10;;
48795;SDS011;34607;48.520;-1.330;2023-05-27T03:18:36;18.73;;;7.03;;
48795;SDS011;34607;48.520;-1.330;2023-05-27T03:24:22;28.27;;;9.15;;
48795;SDS011;34607;48.520;-1.330;2023-05-27T03:26:51;23.90;;;8.02;;
48795;SDS011;34607;48.520;-1.330;2023-05-27T03:29:18;18.10;;;7.82;;
48795;SDS011;34607;48.520;-1.330;2023-05-27T03:31:46;21.70;;;7.82;;
48795;SDS011;34607;48.520;-1.330;2023-05-27T03:34:16;22.33;;;7.05;;
48795;SDS011;34607;48.520;-1.330;2023-05-27T03:36:43;28.17;;;8.20;;
48795;SDS011;34607;48.520;-1.330;2023-05-27T03:39:11;21.60;;;7.47;;
48795;SDS011;34607;48.520;-1.330;2023-05-27T03:41:46;23.80;;;8.23;;
48795;SDS011;34607;48.520;-1.330;2023-05-27T03:44:13;23.45;;;9.02;;
48795;SDS011;34607;48.520;-1.330;2023-05-27T03:46:40;21.90;;;8.48;;
48795;SDS011;34607;48.520;-1.330;2023-05-27T03:49:08;20.02;;;8.18;;
48795;SDS011;34607;48.520;-1.330;2023-05-27T03:51:36;23.50;;;7.57;;
48795;SDS011;34607;48.520;-1.330;2023-05-27T03:54:04;25.15;;;7.47;;
48795;SDS011;34607;48.520;-1.330;2023-05-27T03:56:31;21.65;;;7.93;;
48795;SDS011;34607;48.520;-1.330;2023-05-27T03:59:00;24.55;;;7.95;;
48795;SDS011;34607;48.520;-1.330;2023-05-27T04:01:28;21.90;;;7.68;;
48795;SDS011;34607;48.520;-1.330;2023-05-27T04:03:55;26.63;;;8.07;;
48795;SDS011;34607;48.520;-1.330;2023-05-27T04:06:22;22.75;;;8.23;;
48795;SDS011;34607;48.520;-1.330;2023-05-27T04:08:51;19.88;;;6.80;;
48795;SDS011;34607;48.520;-1.330;2023-05-27T04:11:18;19.52;;;7.72;;
48795;SDS011;34607;48.520;-1.330;2023-05-27T04:14:04;22.30;;;7.43;;
48795;SDS011;34607;48.520;-1.330;2023-05-27T04:16:36;18.48;;;7.50;;
48795;SDS011;34607;48.520;-1.330;2023-05-27T04:19:06;21.77;;;8.30;;
48795;SDS011;34607;48.520;-1.330;2023-05-27T04:21:34;23.55;;;8.85;;
48795;SDS011;34607;48.520;-1.330;2023-05-27T04:24:01;16.80;;;7.32;;
48795;SDS011;34607;48.520;-1.330;2023-05-27T04:26:29;20.77;;;7.72;;
48795;SDS011;34607;48.520;-1.330;2023-05-27T04:28:58;24.92;;;8.68;;
48795;SDS011;34607;48.520;-1.330;2023-05-27T04:31:28;22.27;;;8.88;;
48795;SDS011;34607;48.520;-1.330;2023-05-27T04:34:01;20.70;;;8.35;;
48795;SDS011;34607;48.520;-1.330;2023-05-27T04:36:30;20.75;;;7.00;;
48795;SDS011;34607;48.520;-1.330;2023-05-27T04:39:10;29.60;;;8.32;;
48795;SDS011;34607;48.520;-1.330;2023-05-27T04:41:41;31.60;;;8.63;;
48795;SDS011;34607;48.520;-1.330;2023-05-27T04:44:11;20.17;;;7.35;;
48795;SDS011;34607;48.520;-1.330;2023-05-27T04:46:43;25.15;;;7.90;;
48795;SDS011;34607;48.520;-1.330;2023-05-27T04:49:10;24.08;;;6.95;;
48795;SDS011;34607;48.520;-1.330;2023-05-27T04:51:37;19.98;;;7.95;;
48795;SDS011;34607;48.520;-1.330;2023-05-27T04:54:05;24.95;;;7.80;;
48795;SDS011;34607;48.520;-1.330;2023-05-27T04:56:34;20.70;;;7.47;;
48795;SDS011;34607;48.520;-1.330;2023-05-27T04:59:01;26.05;;;8.13;;
48795;SDS011;34607;48.520;-1.330;2023-05-27T05:01:31;20.05;;;7.25;;
48795;SDS011;34607;48.520;-1.330;2023-05-27T05:04:22;20.75;;;6.70;;
48795;SDS011;34607;48.520;-1.330;2023-05-27T05:06:53;22.30;;;7.50;;
48795;SDS011;34607;48.520;-1.330;2023-05-27T05:09:22;17.55;;;6.50;;
48795;SDS011;34607;48.520;-1.330;2023-05-27T05:11:50;27.50;;;7.88;;
48795;SDS011;34607;48.520;-1.330;2023-05-27T05:14:18;18.92;;;7.30;;
48795;SDS011;34607;48.520;-1.330;2023-05-27T05:16:45;21.92;;;6.93;;
48795;SDS011;34607;48.520;-1.330;2023-05-27T05:19:13;20.92;;;7.47;;
48795;SDS011;34607;48.520;-1.330;2023-05-27T05:21:42;18.65;;;7.15;;
48795;SDS011;34607;48.520;-1.330;2023-05-27T05:24:11;17.83;;;7.22;;
48795;SDS011;34607;48.520;-1.330;2023-05-27T05:26:40;21.50;;;6.43;;
48795;SDS011;34607;48.520;-1.330;2023-05-27T05:29:09;21.70;;;6.68;;
48795;SDS011;34607;48.520;-1.330;2023-05-27T05:31:36;20.55;;;6.80;;
48795;SDS011;34607;48.520;-1.330;2023-05-27T05:34:04;24.90;;;8.95;;
48795;SDS011;34607;48.520;-1.330;2023-05-27T05:39:37;19.42;;;6.53;;
48795;SDS011;34607;48.520;-1.330;2023-05-27T05:42:04;21.35;;;7.85;;
48795;SDS011;34607;48.520;-1.330;2023-05-27T05:44:32;17.08;;;6.60;;
48795;SDS011;34607;48.520;-1.330;2023-05-27T05:47:00;23.80;;;6.78;;
48795;SDS011;34607;48.520;-1.330;2023-05-27T05:49:27;21.50;;;7.28;;
48795;SDS011;34607;48.520;-1.330;2023-05-27T05:51:55;17.95;;;6.88;;
48795;SDS011;34607;48.520;-1.330;2023-05-27T05:54:24;26.48;;;7.38;;
48795;SDS011;34607;48.520;-1.330;2023-05-27T05:56:54;17.05;;;6.63;;
48795;SDS011;34607;48.520;-1.330;2023-05-27T05:59:22;21.90;;;7.30;;
48795;SDS011;34607;48.520;-1.330;2023-05-27T06:01:49;19.42;;;7.30;;
48795;SDS011;34607;48.520;-1.330;2023-05-27T06:04:18;19.33;;;6.53;;
48795;SDS011;34607;48.520;-1.330;2023-05-27T06:06:46;22.05;;;7.00;;
48795;SDS011;34607;48.520;-1.330;2023-05-27T06:09:38;19.23;;;7.05;;
48795;SDS011;34607;48.520;-1.330;2023-05-27T06:12:11;17.63;;;6.95;;
48795;SDS011;34607;48.520;-1.330;2023-05-27T06:14:42;20.10;;;6.65;;
48795;SDS011;34607;48.520;-1.330;2023-05-27T06:17:16;19.27;;;7.27;;
48795;SDS011;34607;48.520;-1.330;2023-05-27T06:19:43;26.15;;;7.43;;
48795;SDS011;34607;48.520;-1.330;2023-05-27T06:22:10;19.90;;;6.68;;
48795;SDS011;34607;48.520;-1.330;2023-05-27T06:24:55;22.75;;;6.68;;
48795;SDS011;34607;48.520;-1.330;2023-05-27T06:27:32;20.00;;;6.93;;
48795;SDS011;34607;48.520;-1.330;2023-05-27T06:29:59;15.32;;;6.90;;
48795;SDS011;34607;48.520;-1.330;2023-05-27T06:32:34;17.08;;;6.32;;
48795;SDS011;34607;48.520;-1.330;2023-05-27T06:35:02;17.67;;;6.38;;
48795;SDS011;34607;48.520;-1.330;2023-05-27T06:37:29;20.67;;;6.78;;
48795;SDS011;34607;48.520;-1.330;2023-05-27T06:39:58;16.10;;;6.43;;
48795;SDS011;34607;48.520;-1.330;2023-05-27T06:45:45;17.48;;;6.53;;
48795;SDS011;34607;48.520;-1.330;2023-05-27T06:48:34;25.17;;;7.55;;
48795;SDS011;34607;48.520;-1.330;2023-05-27T06:51:01;21.55;;;7.57;;
48795;SDS011;34607;48.520;-1.330;2023-05-27T06:53:29;18.90;;;6.40;;
48795;SDS011;34607;48.520;-1.330;2023-05-27T06:56:04;17.25;;;6.85;;
48795;SDS011;34607;48.520;-1.330;2023-05-27T06:58:57;17.45;;;6.53;;
48795;SDS011;34607;48.520;-1.330;2023-05-27T07:01:28;19.13;;;7.20;;
48795;SDS011;34607;48.520;-1.330;2023-05-27T07:04:05;18.00;;;6.25;;
48795;SDS011;34607;48.520;-1.330;2023-05-27T07:06:53;17.05;;;7.28;;
48795;SDS011;34607;48.520;-1.330;2023-05-27T07:09:20;13.77;;;6.78;;
48795;SDS011;34607;48.520;-1.330;2023-05-27T07:11:49;17.85;;;6.95;;
48795;SDS011;34607;48.520;-1.330;2023-05-27T07:14:52;15.18;;;6.53;;
48795;SDS011;34607;48.520;-1.330;2023-05-27T07:17:22;20.90;;;7.30;;
48795;SDS011;34607;48.520;-1.330;2023-05-27T07:19:50;17.95;;;7.07;;
48795;SDS011;34607;48.520;-1.330;2023-05-27T07:22:19;15.98;;;7.30;;
48795;SDS011;34607;48.520;-1.330;2023-05-27T07:24:47;15.48;;;6.45;;
48795;SDS011;34607;48.520;-1.330;2023-05-27T07:27:16;14.88;;;6.45;;
48795;SDS011;34607;48.520;-1.330;2023-05-27T07:29:52;20.15;;;6.80;;
48795;SDS011;34607;48.520;-1.330;2023-05-27T07:32:43;20.30;;;6.10;;
48795;SDS011;34607;48.520;-1.330;2023-05-27T07:35:12;20.98;;;6.97;;
48795;SDS011;34607;48.520;-1.330;2023-05-27T07:37:39;24.58;;;7.57;;
48795;SDS011;34607;48.520;-1.330;2023-05-27T07:44:05;18.45;;;6.68;;
48795;SDS011;34607;48.520;-1.330;2023-05-27T07:46:32;14.75;;;6.30;;
48795;SDS011;34607;48.520;-1.330;2023-05-27T07:49:03;15.98;;;6.60;;
48795;SDS011;34607;48.520;-1.330;2023-05-27T07:55:17;19.15;;;8.23;;
48795;SDS011;34607;48.520;-1.330;2023-05-27T07:57:44;23.63;;;7.28;;
48795;SDS011;34607;48.520;-1.330;2023-05-27T08:00:14;20.45;;;7.65;;
48795;SDS011;34607;48.520;-1.330;2023-05-27T08:02:53;15.23;;;6.70;;
48795;SDS011;34607;48.520;-1.330;2023-05-27T08:05:43;12.10;;;6.40;;
48795;SDS011;34607;48.520;-1.330;2023-05-27T08:08:19;20.13;;;7.20;;
48795;SDS011;34607;48.520;-1.330;2023-05-27T08:11:12;16.70;;;6.63;;
48795;SDS011;34607;48.520;-1.330;2023-05-27T08:14:02;16.73;;;7.15;;
48795;SDS011;34607;48.520;-1.330;2023-05-27T08:16:43;16.65;;;6.75;;
48795;SDS011;34607;48.520;-1.330;2023-05-27T08:19:33;14.25;;;6.75;;
48795;SDS011;34607;48.520;-1.330;2023-05-27T08:22:11;15.82;;;6.80;;
48795;SDS011;34607;48.520;-1.330;2023-05-27T08:25:07;16.55;;;7.38;;
48795;SDS011;34607;48.520;-1.330;2023-05-27T08:28:01;14.32;;;6.95;;
48795;SDS011;34607;48.520;-1.330;2023-05-27T08:30:49;16.92;;;6.80;;
48795;SDS011;34607;48.520;-1.330;2023-05-27T08:33:24;17.73;;;6.22;;
48795;SDS011;34607;48.520;-1.330;2023-05-27T08:35:52;12.75;;;6.35;;
48795;SDS011;34607;48.520;-1.330;2023-05-27T08:41:50;19.95;;;7.45;;
48795;SDS011;34607;48.520;-1.330;2023-05-27T08:44:23;19.15;;;7.05;;
48795;SDS011;34607;48.520;-1.330;2023-05-27T08:47:51;21.00;;;6.80;;
48795;SDS011;34607;48.520;-1.330;2023-05-27T08:50:35;17.65;;;6.68;;
48795;SDS011;34607;48.520;-1.330;2023-05-27T08:53:02;25.42;;;7.00;;
48795;SDS011;34607;48.520;-1.330;2023-05-27T08:55:31;11.30;;;6.13;;
48795;SDS011;34607;48.520;-1.330;2023-05-27T08:57:59;19.80;;;7.10;;
48795;SDS011;34607;48.520;-1.330;2023-05-27T09:00:32;18.52;;;7.00;;
48795;SDS011;34607;48.520;-1.330;2023-05-27T09:03:12;17.05;;;6.57;;
48795;SDS011;34607;48.520;-1.330;2023-05-27T09:05:41;21.65;;;6.95;;
48795;SDS011;34607;48.520;-1.330;2023-05-27T09:08:09;19.83;;;7.53;;
48795;SDS011;34607;48.520;-1.330;2023-05-27T09:14:31;14.32;;;7.32;;
48795;SDS011;34607;48.520;-1.330;2023-05-27T09:17:04;16.15;;;7.63;;
48795;SDS011;34607;48.520;-1.330;2023-05-27T09:19:32;19.80;;;8.85;;
48795;SDS011;34607;48.520;-1.330;2023-05-27T09:22:00;21.25;;;7.40;;
48795;SDS011;34607;48.520;-1.330;2023-05-27T09:24:28;16.75;;;7.65;;
48795;SDS011;34607;48.520;-1.330;2023-05-27T09:26:55;15.40;;;7.80;;
48795;SDS011;34607;48.520;-1.330;2023-05-27T09:29:23;25.13;;;7.15;;
48795;SDS011;34607;48.520;-1.330;2023-05-27T09:31:53;16.23;;;6.80;;
48795;SDS011;34607;48.520;-1.330;2023-05-27T09:34:21;19.02;;;6.90;;
48795;SDS011;34607;48.520;-1.330;2023-05-27T09:36:49;19.15;;;8.77;;
48795;SDS011;34607;48.520;-1.330;2023-05-27T09:39:19;17.50;;;7.57;;
48795;SDS011;34607;48.520;-1.330;2023-05-27T09:41:52;16.13;;;7.57;;
48795;SDS011;34607;48.520;-1.330;2023-05-27T09:44:20;15.52;;;6.28;;
48795;SDS011;34607;48.520;-1.330;2023-05-27T09:46:50;17.33;;;7.50;;
48795;SDS011;34607;48.520;-1.330;2023-05-27T09:49:21;15.98;;;7.70;;
48795;SDS011;34607;48.520;-1.330;2023-05-27T09:51:50;13.00;;;6.10;;
48795;SDS011;34607;48.520;-1.330;2023-05-27T09:54:21;18.02;;;7.57;;
48795;SDS011;34607;48.520;-1.330;2023-05-27T09:56:50;19.05;;;8.10;;
48795;SDS011;34607;48.520;-1.330;2023-05-27T09:59:18;15.30;;;6.05;;
48795;SDS011;34607;48.520;-1.330;2023-05-27T10:01:46;13.98;;;6.47;;
48795;SDS011;34607;48.520;-1.330;2023-05-27T10:04:15;15.85;;;6.10;;
48795;SDS011;34607;48.520;-1.330;2023-05-27T10:06:42;17.85;;;6.70;;
48795;SDS011;34607;48.520;-1.330;2023-05-27T10:09:11;15.30;;;6.65;;
48795;SDS011;34607;48.520;-1.330;2023-05-27T10:11:42;19.10;;;6.80;;
48795;SDS011;34607;48.520;-1.330;2023-05-27T10:14:11;17.13;;;7.20;;
48795;SDS011;34607;48.520;-1.330;2023-05-27T10:16:38;13.77;;;6.43;;
48795;SDS011;34607;48.520;-1.330;2023-05-27T10:19:17;44.97;;;29.92;;
48795;SDS011;34607;48.520;-1.330;2023-05-27T10:21:44;16.02;;;7.72;;
48795;SDS011;34607;48.520;-1.330;2023-05-27T10:24:12;14.00;;;6.82;;
48795;SDS011;34607;48.520;-1.330;2023-05-27T10:26:39;13.75;;;6.75;;
48795;SDS011;34607;48.520;-1.330;2023-05-27T10:29:10;13.43;;;6.93;;
48795;SDS011;34607;48.520;-1.330;2023-05-27T10:31:43;16.58;;;6.97;;
48795;SDS011;34607;48.520;-1.330;2023-05-27T10:34:11;15.02;;;6.10;;
48795;SDS011;34607;48.520;-1.330;2023-05-27T10:39:53;18.75;;;8.00;;
48795;SDS011;34607;48.520;-1.330;2023-05-27T10:42:21;17.17;;;8.75;;
48795;SDS011;34607;48.520;-1.330;2023-05-27T10:45:05;13.32;;;6.93;;
48795;SDS011;34607;48.520;-1.330;2023-05-27T10:47:36;14.45;;;6.03;;
48795;SDS011;34607;48.520;-1.330;2023-05-27T10:50:10;14.25;;;6.75;;
48795;SDS011;34607;48.520;-1.330;2023-05-27T10:52:39;16.00;;;6.82;;
48795;SDS011;34607;48.520;-1.330;2023-05-27T10:55:07;14.10;;;6.38;;
48795;SDS011;34607;48.520;-1.330;2023-05-27T10:57:35;12.25;;;6.45;;
48795;SDS011;34607;48.520;-1.330;2023-05-27T11:00:02;10.93;;;5.93;;
48795;SDS011;34607;48.520;-1.330;2023-05-27T11:02:34;13.95;;;6.55;;
48795;SDS011;34607;48.520;-1.330;2023-05-27T11:05:13;17.55;;;7.57;;
48795;SDS011;34607;48.520;-1.330;2023-05-27T11:07:41;13.52;;;6.80;;
48795;SDS011;34607;48.520;-1.330;2023-05-27T11:10:08;12.45;;;6.47;;
48795;SDS011;34607;48.520;-1.330;2023-05-27T11:12:43;14.70;;;6.88;;
48795;SDS011;34607;48.520;-1.330;2023-05-27T11:15:18;14.02;;;6.43;;
48795;SDS011;34607;48.520;-1.330;2023-05-27T11:17:45;14.32;;;7.65;;
48795;SDS011;34607;48.520;-1.330;2023-05-27T11:20:15;12.63;;;6.65;;
48795;SDS011;34607;48.520;-1.330;2023-05-27T11:22:48;13.57;;;6.90;;
48795;SDS011;34607;48.520;-1.330;2023-05-27T11:25:19;14.05;;;6.43;;
48795;SDS011;34607;48.520;-1.330;2023-05-27T11:27:49;9.65;;;5.78;;
48795;SDS011;34607;48.520;-1.330;2023-05-27T11:30:18;11.13;;;6.30;;
48795;SDS011;34607;48.520;-1.330;2023-05-27T11:32:50;15.50;;;6.63;;
48795;SDS011;34607;48.520;-1.330;2023-05-27T11:35:21;13.73;;;6.70;;
48795;SDS011;34607;48.520;-1.330;2023-05-27T11:37:49;12.00;;;6.07;;
48795;SDS011;34607;48.520;-1.330;2023-05-27T11:40:17;12.70;;;6.60;;
48795;SDS011;34607;48.520;-1.330;2023-05-27T11:42:44;9.55;;;6.28;;
48795;SDS011;34607;48.520;-1.330;2023-05-27T11:49:34;10.00;;;5.90;;
48795;SDS011;34607;48.520;-1.330;2023-05-27T11:52:03;12.32;;;6.63;;
48795;SDS011;34607;48.520;-1.330;2023-05-27T11:54:31;13.63;;;6.78;;
48795;SDS011;34607;48.520;-1.330;2023-05-27T11:56:58;14.48;;;6.43;;
48795;SDS011;34607;48.520;-1.330;2023-05-27T11:59:25;12.88;;;5.68;;
48795;SDS011;34607;48.520;-1.330;2023-05-27T12:01:53;16.48;;;7.70;;
48795;SDS011;34607;48.520;-1.330;2023-05-27T12:04:20;10.20;;;6.35;;
48795;SDS011;34607;48.520;-1.330;2023-05-27T12:06:48;11.10;;;5.80;;
48795;SDS011;34607;48.520;-1.330;2023-05-27T12:09:16;11.90;;;5.75;;
48795;SDS011;34607;48.520;-1.330;2023-05-27T12:11:43;13.77;;;5.85;;
48795;SDS011;34607;48.520;-1.330;2023-05-27T12:14:10;11.75;;;5.72;;
48795;SDS011;34607;48.520;-1.330;2023-05-27T12:16:37;8.60;;;6.10;;
48795;SDS011;34607;48.520;-1.330;2023-05-27T12:19:04;10.63;;;6.03;;
48795;SDS011;34607;48.520;-1.330;2023-05-27T12:21:33;9.48;;;5.50;;
48795;SDS011;34607;48.520;-1.330;2023-05-27T12:24:02;8.00;;;5.70;;
48795;SDS011;34607;48.520;-1.330;2023-05-27T12:26:29;9.85;;;5.88;;
48795;SDS011;34607;48.520;-1.330;2023-05-27T12:28:59;10.68;;;6.22;;
48795;SDS011;34607;48.520;-1.330;2023-05-27T12:31:29;12.32;;;6.10;;
48795;SDS011;34607;48.520;-1.330;2023-05-27T12:33:57;12.18;;;6.65;;
48795;SDS011;34607;48.520;-1.330;2023-05-27T12:36:24;11.60;;;6.60;;
48795;SDS011;34607;48.520;-1.330;2023-05-27T12:38:51;14.02;;;5.75;;
48795;SDS011;34607;48.520;-1.330;2023-05-27T12:41:20;12.38;;;5.60;;
48795;SDS011;34607;48.520;-1.330;2023-05-27T12:43:50;14.65;;;6.25;;
48795;SDS011;34607;48.520;-1.330;2023-05-27T12:46:17;12.75;;;6.80;;
48795;SDS011;34607;48.520;-1.330;2023-05-27T12:48:44;9.20;;;5.95;;
48795;SDS011;34607;48.520;-1.330;2023-05-27T12:51:12;16.50;;;8.02;;
48795;SDS011;34607;48.520;-1.330;2023-05-27T12:53:42;10.75;;;6.15;;
48795;SDS011;34607;48.520;-1.330;2023-05-27T12:56:09;13.00;;;5.90;;
48795;SDS011;34607;48.520;-1.330;2023-05-27T12:58:38;14.18;;;5.60;;
48795;SDS011;34607;48.520;-1.330;2023-05-27T13:01:05;11.65;;;5.53;;
48795;SDS011;34607;48.520;-1.330;2023-05-27T13:03:32;14.30;;;5.95;;
48795;SDS011;34607;48.520;-1.330;2023-05-27T13:06:00;12.30;;;6.22;;
48795;SDS011;34607;48.520;-1.330;2023-05-27T13:08:27;12.82;;;6.13;;
48795;SDS011;34607;48.520;-1.330;2023-05-27T13:10:54;10.82;;;5.63;;
48795;SDS011;34607;48.520;-1.330;2023-05-27T13:13:21;10.73;;;5.60;;
48795;SDS011;34607;48.520;-1.330;2023-05-27T13:15:50;9.30;;;5.22;;
48795;SDS011;34607;48.520;-1.330;2023-05-27T13:18:17;10.23;;;5.90;;
48795;SDS011;34607;48.520;-1.330;2023-05-27T13:20:44;10.60;;;6.18;;
48795;SDS011;34607;48.520;-1.330;2023-05-27T13:23:11;12.05;;;6.18;;
48795;SDS011;34607;48.520;-1.330;2023-05-27T13:25:38;11.38;;;7.13;;
48795;SDS011;34607;48.520;-1.330;2023-05-27T13:28:06;10.77;;;5.43;;
48795;SDS011;34607;48.520;-1.330;2023-05-27T13:30:33;9.77;;;5.80;;
48795;SDS011;34607;48.520;-1.330;2023-05-27T13:33:01;10.07;;;5.53;;
48795;SDS011;34607;48.520;-1.330;2023-05-27T13:35:29;13.55;;;6.05;;
48795;SDS011;34607;48.520;-1.330;2023-05-27T13:37:56;9.05;;;5.40;;
48795;SDS011;34607;48.520;-1.330;2023-05-27T13:40:25;10.07;;;5.90;;
48795;SDS011;34607;48.520;-1.330;2023-05-27T13:42:52;8.27;;;5.40;;
48795;SDS011;34607;48.520;-1.330;2023-05-27T13:45:19;10.00;;;5.68;;
48795;SDS011;34607;48.520;-1.330;2023-05-27T13:47:47;10.38;;;5.70;;
48795;SDS011;34607;48.520;-1.330;2023-05-27T13:50:17;8.57;;;5.50;;
48795;SDS011;34607;48.520;-1.330;2023-05-27T13:52:44;13.10;;;6.53;;
48795;SDS011;34607;48.520;-1.330;2023-05-27T13:55:12;9.25;;;5.93;;
48795;SDS011;34607;48.520;-1.330;2023-05-27T13:57:40;9.80;;;4.90;;
48795;SDS011;34607;48.520;-1.330;2023-05-27T14:00:09;10.23;;;5.55;;
48795;SDS011;34607;48.520;-1.330;2023-05-27T14:02:37;8.93;;;5.75;;
48795;SDS011;34607;48.520;-1.330;2023-05-27T14:05:04;10.32;;;5.63;;
48795;SDS011;34607;48.520;-1.330;2023-05-27T14:07:38;11.18;;;5.72;;
48795;SDS011;34607;48.520;-1.330;2023-05-27T14:10:07;9.43;;;5.20;;
48795;SDS011;34607;48.520;-1.330;2023-05-27T14:12:34;11.52;;;6.15;;
48795;SDS011;34607;48.520;-1.330;2023-05-27T14:15:01;11.00;;;5.60;;
48795;SDS011;34607;48.520;-1.330;2023-05-27T14:17:29;13.45;;;5.97;;
48795;SDS011;34607;48.520;-1.330;2023-05-27T14:19:56;12.45;;;5.80;;
48795;SDS011;34607;48.520;-1.330;2023-05-27T14:22:24;10.88;;;5.72;;
48795;SDS011;34607;48.520;-1.330;2023-05-27T14:24:52;11.65;;;5.68;;
48795;SDS011;34607;48.520;-1.330;2023-05-27T14:27:19;11.90;;;5.57;;
48795;SDS011;34607;48.520;-1.330;2023-05-27T14:29:47;10.52;;;5.47;;
48795;SDS011;34607;48.520;-1.330;2023-05-27T14:32:14;7.50;;;4.70;;
48795;SDS011;34607;48.520;-1.330;2023-05-27T14:34:41;10.98;;;5.93;;
48795;SDS011;34607;48.520;-1.330;2023-05-27T14:37:08;10.52;;;5.55;;
48795;SDS011;34607;48.520;-1.330;2023-05-27T14:39:35;9.20;;;5.60;;
48795;SDS011;34607;48.520;-1.330;2023-05-27T14:42:04;11.77;;;5.68;;
48795;SDS011;34607;48.520;-1.330;2023-05-27T14:44:33;9.40;;;5.03;;
48795;SDS011;34607;48.520;-1.330;2023-05-27T14:47:01;9.07;;;5.15;;
48795;SDS011;34607;48.520;-1.330;2023-05-27T14:49:29;9.48;;;5.28;;
48795;SDS011;34607;48.520;-1.330;2023-05-27T14:51:56;11.93;;;5.35;;
48795;SDS011;34607;48.520;-1.330;2023-05-27T14:54:23;11.95;;;5.80;;
48795;SDS011;34607;48.520;-1.330;2023-05-27T14:56:50;9.38;;;5.47;;
48795;SDS011;34607;48.520;-1.330;2023-05-27T14:59:19;8.77;;;4.72;;
48795;SDS011;34607;48.520;-1.330;2023-05-27T15:01:47;10.23;;;4.85;;
48795;SDS011;34607;48.520;-1.330;2023-05-27T15:04:14;12.85;;;5.95;;
48795;SDS011;34607;48.520;-1.330;2023-05-27T15:06:42;12.32;;;6.05;;
48795;SDS011;34607;48.520;-1.330;2023-05-27T15:09:09;11.70;;;5.65;;
48795;SDS011;34607;48.520;-1.330;2023-05-27T15:11:37;12.35;;;5.82;;